createdAt,value
2022-11-24T00:00:34.480Z,17.85
2022-11-24T00:03:37.371Z,13.82
2022-11-24T00:06:39.952Z,16.00
2022-11-24T00:09:42.758Z,13.77
2022-11-24T00:12:45.260Z,18.20
2022-11-24T00:15:48.018Z,13.75
2022-11-24T00:18:52.542Z,12.68
2022-11-24T00:21:55.428Z,16.48
2022-11-24T00:24:57.901Z,18.57
2022-11-24T00:28:00.752Z,10.47
2022-11-24T00:31:04.261Z,21.90
2022-11-24T00:34:10.580Z,17.45
2022-11-24T00:37:13.155Z,14.55
2022-11-24T00:40:16.097Z,15.90
2022-11-24T00:43:18.983Z,17.77
2022-11-24T00:46:22.544Z,15.73
2022-11-24T00:49:25.123Z,15.48
2022-11-24T00:52:27.885Z,10.75
2022-11-24T00:55:30.429Z,15.43
2022-11-24T00:58:33.587Z,15.37
2022-11-24T01:01:36.398Z,16.27
2022-11-24T01:04:39.335Z,23.15
2022-11-24T01:07:41.985Z,12.57
2022-11-24T01:10:45.210Z,18.50
2022-11-24T01:13:51.365Z,22.17
2022-11-24T01:16:54.889Z,13.35
2022-11-24T01:19:57.459Z,15.23
2022-11-24T01:23:00.258Z,16.62
2022-11-24T01:26:07.569Z,19.83
2022-11-24T01:29:11.080Z,13.53
2022-11-24T01:32:13.914Z,14.90
2022-11-24T01:35:16.762Z,12.20
2022-11-24T01:38:19.323Z,16.73
2022-11-24T01:41:24.648Z,17.23
2022-11-24T01:44:29.406Z,19.13
2022-11-24T01:47:35.616Z,15.52
2022-11-24T01:50:38.319Z,18.75
2022-11-24T01:53:44.576Z,19.65
2022-11-24T01:56:52.937Z,16.87
2022-11-24T01:59:59.550Z,15.10
2022-11-24T02:03:02.525Z,17.15
2022-11-24T02:06:12.039Z,17.42
2022-11-24T02:09:31.492Z,17.20
2022-11-24T02:12:34.310Z,13.37
2022-11-24T02:15:36.858Z,22.53
2022-11-24T02:18:40.258Z,12.32
2022-11-24T02:21:42.969Z,13.57
2022-11-24T02:25:02.861Z,12.63
2022-11-24T02:28:12.481Z,11.23
2022-11-24T02:31:15.309Z,14.97
2022-11-24T02:34:17.870Z,19.80
2022-11-24T02:37:20.712Z,17.67
2022-11-24T02:40:25.794Z,20.10
2022-11-24T02:43:31.016Z,11.53
2022-11-24T02:46:33.532Z,21.07
2022-11-24T02:49:37.065Z,15.40
2022-11-24T02:52:39.559Z,16.80
2022-11-24T02:55:42.461Z,19.00
2022-11-24T02:58:44.982Z,21.37
2022-11-24T03:01:47.916Z,13.90
2022-11-24T03:04:50.659Z,16.10
2022-11-24T03:07:53.490Z,17.85
2022-11-24T03:10:56.081Z,12.80
2022-11-24T03:13:59.044Z,17.53
2022-11-24T03:17:01.938Z,13.07
2022-11-24T03:20:05.489Z,21.95
2022-11-24T03:23:08.076Z,22.08
2022-11-24T03:26:13.223Z,14.07
2022-11-24T03:29:15.822Z,16.83
2022-11-24T03:32:19.024Z,20.80
2022-11-24T03:35:22.176Z,18.23
2022-11-24T03:38:25.310Z,15.63
2022-11-24T03:41:27.947Z,15.75
2022-11-24T03:44:31.056Z,15.90
2022-11-24T03:47:33.750Z,19.23
2022-11-24T03:50:36.552Z,19.10
2022-11-24T03:53:39.437Z,16.92
2022-11-24T03:56:42.858Z,12.85
2022-11-24T03:59:45.336Z,7.87
2022-11-24T04:02:48.604Z,10.63
2022-11-24T04:05:51.706Z,10.23
2022-11-24T04:08:54.664Z,6.55
2022-11-24T04:12:15.924Z,8.52
2022-11-24T04:15:19.315Z,7.27
2022-11-24T04:18:22.464Z,7.90
2022-11-24T04:21:24.980Z,11.63
2022-11-24T04:24:27.755Z,13.38
2022-11-24T04:27:30.281Z,7.22
2022-11-24T04:30:33.080Z,9.77
2022-11-24T04:33:35.769Z,7.30
2022-11-24T04:36:41.059Z,9.50
2022-11-24T04:39:44.138Z,9.80
2022-11-24T04:42:58.074Z,8.73
2022-11-24T04:46:01.726Z,13.27
2022-11-24T04:49:04.492Z,12.97
2022-11-24T04:52:07.076Z,7.90
2022-11-24T04:55:10.026Z,11.75
2022-11-24T04:58:13.193Z,9.52
2022-11-24T05:01:16.164Z,9.30
2022-11-24T05:04:20.473Z,12.57
2022-11-24T05:07:23.296Z,5.97
2022-11-24T05:10:35.164Z,9.82
2022-11-24T05:13:37.932Z,8.55
2022-11-24T05:16:40.871Z,9.90
2022-11-24T05:19:43.655Z,11.10
2022-11-24T05:22:46.241Z,8.13
2022-11-24T05:25:49.009Z,7.72
2022-11-24T05:28:51.514Z,6.90
2022-11-24T05:31:54.291Z,9.40
2022-11-24T05:34:56.857Z,3.73
2022-11-24T05:37:59.670Z,7.65
2022-11-24T05:41:05.712Z,9.80
2022-11-24T05:44:08.505Z,8.77
2022-11-24T05:47:10.971Z,7.53
2022-11-24T05:50:15.416Z,7.33
2022-11-24T05:53:17.887Z,8.85
2022-11-24T05:56:20.588Z,8.50
2022-11-24T05:59:23.078Z,6.53
2022-11-24T06:02:26.207Z,6.27
2022-11-24T06:05:29.602Z,8.37
2022-11-24T06:08:32.674Z,7.05
2022-11-24T06:11:35.572Z,9.27
2022-11-24T06:14:38.341Z,6.12
2022-11-24T06:17:41.315Z,9.33
2022-11-24T06:20:53.145Z,7.63
2022-11-24T06:24:06.221Z,8.55
2022-11-24T06:27:08.748Z,8.07
2022-11-24T06:30:13.006Z,8.25
2022-11-24T06:33:15.543Z,5.20
2022-11-24T06:36:18.346Z,8.93
2022-11-24T06:39:20.848Z,7.50
2022-11-24T06:42:23.785Z,4.57
2022-11-24T06:45:26.491Z,4.82
2022-11-24T06:48:30.055Z,9.30
2022-11-24T06:51:32.752Z,8.93
2022-11-24T06:54:35.965Z,7.55
2022-11-24T06:57:38.795Z,8.90
2022-11-24T07:00:41.689Z,8.30
2022-11-24T07:03:45.017Z,13.93
2022-11-24T07:06:47.802Z,12.13
2022-11-24T07:09:50.410Z,10.07
2022-11-24T07:12:53.263Z,9.77
2022-11-24T07:15:56.066Z,8.88
2022-11-24T07:18:59.519Z,6.03
2022-11-24T07:22:02.278Z,3.70
2022-11-24T07:25:07.589Z,6.80
2022-11-24T07:28:10.423Z,6.90
2022-11-24T07:31:15.867Z,3.85
2022-11-24T07:34:18.565Z,3.77
2022-11-24T07:37:24.511Z,3.27
2022-11-24T07:40:30.752Z,6.72
2022-11-24T07:43:34.719Z,6.70
2022-11-24T07:46:39.679Z,7.53
2022-11-24T07:49:44.701Z,5.33
2022-11-24T07:52:47.331Z,7.27
2022-11-24T07:56:00.203Z,5.12
2022-11-24T07:59:03.342Z,7.40
2022-11-24T08:02:06.694Z,8.68
2022-11-24T08:05:09.781Z,7.43
2022-11-24T08:08:12.486Z,5.60
2022-11-24T08:11:17.188Z,4.55
2022-11-24T08:14:19.812Z,7.90
2022-11-24T08:17:23.153Z,6.75
2022-11-24T08:20:26.771Z,6.00
2022-11-24T08:23:30.644Z,7.80
2022-11-24T08:26:34.677Z,8.85
2022-11-24T08:29:38.108Z,5.87
2022-11-24T08:32:40.677Z,9.30
2022-11-24T08:35:43.541Z,5.03
2022-11-24T08:38:46.950Z,9.60
2022-11-24T08:41:49.751Z,4.65
2022-11-24T08:44:58.916Z,5.05
2022-11-24T08:48:02.240Z,8.32
2022-11-24T08:51:15.856Z,7.17
2022-11-24T08:54:18.940Z,6.23
2022-11-24T08:57:23.802Z,5.50
2022-11-24T09:00:28.806Z,5.53
2022-11-24T09:03:31.851Z,6.78
2022-11-24T09:06:34.878Z,6.07
2022-11-24T09:09:37.574Z,5.83
2022-11-24T09:12:40.608Z,4.10
2022-11-24T09:15:43.207Z,3.87
2022-11-24T09:18:47.091Z,4.65
2022-11-24T09:21:50.149Z,4.93
2022-11-24T09:24:53.037Z,5.40
2022-11-24T09:27:56.635Z,5.18
2022-11-24T09:31:06.127Z,7.15
2022-11-24T09:34:13.079Z,4.72
2022-11-24T09:37:15.817Z,5.53
2022-11-24T09:40:18.411Z,6.13
2022-11-24T09:43:37.701Z,2.62
2022-11-24T09:46:57.200Z,7.35
2022-11-24T09:50:06.609Z,4.25
2022-11-24T09:53:12.640Z,5.37
2022-11-24T09:56:15.393Z,4.03
2022-11-24T09:59:24.824Z,4.43
2022-11-24T10:02:27.907Z,5.03
2022-11-24T10:05:34.765Z,4.07
2022-11-24T10:09:15.384Z,6.77
2022-11-24T10:12:35.711Z,6.17
2022-11-24T10:15:45.331Z,7.00
2022-11-24T10:18:59.258Z,5.95
2022-11-24T10:22:14.209Z,3.80
2022-11-24T10:25:26.329Z,4.90
2022-11-24T10:28:55.720Z,7.23
2022-11-24T10:31:58.589Z,5.03
2022-11-24T10:35:17.443Z,4.18
2022-11-24T10:38:20.281Z,7.10
2022-11-24T10:41:32.203Z,5.30
2022-11-24T10:44:35.203Z,7.03
2022-11-24T10:47:38.432Z,6.18
2022-11-24T10:50:41.679Z,9.40
2022-11-24T10:53:46.197Z,4.95
2022-11-24T10:56:52.022Z,6.17
2022-11-24T10:59:55.671Z,4.67
2022-11-24T11:03:33.932Z,5.45
2022-11-24T11:06:38.162Z,5.95
2022-11-24T11:09:41.123Z,5.00
2022-11-24T11:12:45.003Z,5.03
2022-11-24T11:15:48.278Z,3.70
2022-11-24T11:18:51.042Z,4.70
2022-11-24T11:22:02.610Z,3.85
2022-11-24T11:25:08.075Z,4.18
2022-11-24T11:28:29.882Z,3.70
2022-11-24T11:31:33.209Z,4.37
2022-11-24T11:34:37.002Z,3.35
2022-11-24T11:37:40.074Z,3.78
2022-11-24T11:40:44.022Z,4.15
2022-11-24T11:43:50.443Z,2.63
2022-11-24T11:46:54.609Z,3.20
2022-11-24T11:49:57.881Z,3.15
2022-11-24T11:53:07.539Z,1.83
2022-11-24T11:56:10.152Z,2.87
2022-11-24T11:59:13.076Z,2.27
2022-11-24T12:02:51.572Z,1.97
2022-11-24T12:05:59.619Z,3.00
2022-11-24T12:09:20.727Z,3.85
2022-11-24T12:13:01.898Z,3.03
2022-11-24T12:16:15.277Z,2.50
2022-11-24T12:19:27.468Z,3.37
2022-11-24T12:22:59.616Z,1.62
2022-11-24T12:26:05.474Z,3.30
2022-11-24T12:29:26.293Z,1.35
2022-11-24T12:32:47.528Z,1.80
2022-11-24T12:35:54.524Z,2.17
2022-11-24T12:39:18.666Z,2.20
2022-11-24T12:42:42.959Z,1.80
2022-11-24T12:46:18.611Z,1.25
2022-11-24T12:49:33.458Z,2.17
2022-11-24T12:53:04.306Z,1.67
2022-11-24T12:56:10.908Z,1.90
2022-11-24T12:59:39.410Z,2.87
2022-11-24T13:03:00.914Z,2.20
2022-11-24T13:06:09.820Z,1.87
2022-11-24T13:09:13.829Z,2.30
2022-11-24T13:12:16.792Z,1.92
2022-11-24T13:18:59.343Z,2.87
2022-11-24T13:22:16.763Z,2.67
2022-11-24T13:25:26.124Z,2.30
2022-11-24T13:29:09.325Z,2.25
2022-11-24T13:32:25.066Z,2.30
2022-11-24T13:35:28.065Z,2.33
2022-11-24T13:38:46.122Z,2.83
2022-11-24T13:41:48.570Z,2.77
2022-11-24T13:44:53.295Z,2.33
2022-11-24T13:47:55.790Z,2.25
2022-11-24T13:50:58.705Z,3.87
2022-11-24T13:54:01.806Z,3.10
2022-11-24T13:57:47.197Z,2.37
2022-11-24T14:00:58.359Z,2.62
2022-11-24T14:04:29.867Z,4.10
2022-11-24T14:07:33.585Z,5.50
2022-11-24T14:10:41.070Z,4.43
2022-11-24T14:13:43.735Z,3.83
2022-11-24T14:16:46.656Z,6.12
2022-11-24T14:19:51.414Z,4.60
2022-11-24T14:22:54.378Z,14.73
2022-11-24T14:25:57.026Z,14.10
2022-11-24T14:29:07.208Z,7.40
2022-11-24T14:32:16.433Z,9.25
2022-11-24T14:35:30.632Z,8.75
2022-11-24T14:38:34.062Z,4.68
2022-11-24T14:41:37.821Z,6.73
2022-11-24T14:44:40.436Z,9.37
2022-11-24T14:47:46.326Z,14.23
2022-11-24T14:50:49.126Z,11.05
2022-11-24T14:53:57.881Z,7.93
2022-11-24T14:57:04.337Z,6.70
2022-11-24T15:00:19.989Z,5.37
2022-11-24T15:03:22.670Z,5.32
2022-11-24T15:06:25.609Z,8.07
2022-11-24T15:09:39.700Z,5.70
2022-11-24T15:12:50.402Z,4.47
2022-11-24T15:16:03.378Z,4.30
2022-11-24T15:19:14.809Z,4.22
2022-11-24T15:22:37.327Z,5.57
2022-11-24T15:25:40.291Z,4.90
2022-11-24T15:28:42.871Z,5.60
2022-11-24T15:31:50.952Z,7.63
2022-11-24T15:34:55.310Z,6.05
2022-11-24T15:37:58.772Z,6.32
2022-11-24T15:41:01.793Z,7.55
2022-11-24T15:44:04.875Z,9.13
2022-11-24T15:47:08.752Z,4.00
2022-11-24T15:50:12.270Z,4.43
2022-11-24T15:53:35.425Z,7.40
2022-11-24T15:56:41.872Z,7.07
2022-11-24T15:59:44.471Z,7.83
2022-11-24T16:02:47.813Z,6.47
2022-11-24T16:05:53.338Z,9.25
2022-11-24T16:08:56.655Z,8.18
2022-11-24T16:11:59.885Z,8.30
2022-11-24T16:15:02.585Z,6.67
2022-11-24T16:18:06.573Z,6.83
2022-11-24T16:21:10.497Z,7.05
2022-11-24T16:24:13.390Z,11.43
2022-11-24T16:27:16.492Z,12.37
2022-11-24T16:30:19.549Z,16.77
2022-11-24T16:33:22.306Z,14.53
2022-11-24T16:36:25.300Z,17.52
2022-11-24T16:39:28.073Z,22.42
2022-11-24T16:42:31.432Z,20.50
2022-11-24T16:45:34.249Z,17.40
2022-11-24T16:48:37.462Z,8.27
2022-11-24T16:51:40.095Z,6.18
2022-11-24T16:54:43.373Z,7.43
2022-11-24T16:57:46.251Z,8.10
2022-11-24T17:00:49.328Z,10.00
2022-11-24T17:03:52.425Z,16.77
2022-11-24T17:06:58.404Z,11.75
2022-11-24T17:10:01.162Z,9.75
2022-11-24T17:13:04.014Z,6.30
2022-11-24T17:16:09.053Z,11.90
2022-11-24T17:19:12.896Z,8.80
2022-11-24T17:22:15.402Z,7.90
2022-11-24T17:25:18.145Z,9.48
2022-11-24T17:28:20.888Z,9.77
2022-11-24T17:31:25.702Z,18.23
2022-11-24T17:34:28.253Z,44.03
2022-11-24T17:37:32.229Z,46.72
2022-11-24T17:40:35.405Z,32.72
2022-11-24T17:43:38.494Z,31.02
2022-11-24T17:46:41.246Z,27.03
2022-11-24T17:49:44.244Z,23.60
2022-11-24T17:52:46.849Z,19.55
2022-11-24T17:55:49.676Z,26.12
2022-11-24T17:58:54.408Z,15.65
2022-11-24T18:01:57.522Z,17.37
2022-11-24T18:05:00.527Z,18.33
2022-11-24T18:08:04.156Z,18.33
2022-11-24T18:11:08.915Z,17.35
2022-11-24T18:14:11.729Z,15.77
2022-11-24T18:17:14.739Z,17.40
2022-11-24T18:20:18.646Z,17.17
2022-11-24T18:23:21.700Z,17.30
2022-11-24T18:26:24.282Z,16.45
2022-11-24T18:29:28.264Z,15.15
2022-11-24T18:32:34.196Z,12.93
2022-11-24T18:35:37.266Z,15.40
2022-11-24T18:38:40.080Z,16.05
2022-11-24T18:41:43.127Z,14.40
2022-11-24T18:44:49.723Z,16.58
2022-11-24T18:47:55.518Z,16.50
2022-11-24T18:50:58.165Z,13.53
2022-11-24T18:54:03.173Z,12.02
2022-11-24T18:57:05.831Z,10.98
2022-11-24T19:00:10.523Z,9.85
2022-11-24T19:03:13.705Z,9.23
2022-11-24T19:06:20.324Z,9.17
2022-11-24T19:09:25.414Z,9.25
2022-11-24T19:12:28.379Z,10.40
2022-11-24T19:15:35.189Z,23.67
2022-11-24T19:18:38.488Z,20.33
2022-11-24T19:21:41.481Z,21.07
2022-11-24T19:24:46.689Z,20.65
2022-11-24T19:27:49.457Z,15.32
2022-11-24T19:30:52.497Z,16.77
2022-11-24T19:33:57.971Z,17.33
2022-11-24T19:37:01.020Z,17.93
2022-11-24T19:40:04.960Z,17.52
2022-11-24T19:43:08.076Z,15.38
2022-11-24T19:46:12.458Z,14.63
2022-11-24T19:49:15.586Z,9.57
2022-11-24T19:52:18.635Z,7.03
2022-11-24T19:55:21.695Z,9.48
2022-11-24T19:58:24.919Z,20.00
2022-11-24T20:01:33.518Z,11.77
2022-11-24T20:04:39.745Z,6.70
2022-11-24T20:07:42.587Z,6.67
2022-11-24T20:10:45.819Z,11.32
2022-11-24T20:13:50.108Z,14.65
2022-11-24T20:16:53.168Z,6.82
2022-11-24T20:19:55.954Z,7.03
2022-11-24T20:22:59.044Z,5.80
2022-11-24T20:26:07.422Z,5.12
2022-11-24T20:29:13.157Z,6.20
2022-11-24T20:32:19.583Z,5.18
2022-11-24T20:35:22.699Z,3.40
2022-11-24T20:38:25.169Z,4.43
2022-11-24T20:41:31.792Z,3.72
2022-11-24T20:44:34.996Z,5.37
2022-11-24T20:47:38.095Z,8.38
2022-11-24T20:50:40.860Z,6.20
2022-11-24T20:53:43.754Z,9.20
2022-11-24T20:56:47.133Z,7.85
2022-11-24T20:59:52.416Z,5.60
2022-11-24T21:02:57.672Z,5.25
2022-11-24T21:06:01.012Z,12.80
2022-11-24T21:09:05.522Z,10.77
2022-11-24T21:12:08.401Z,11.10
2022-11-24T21:18:34.686Z,8.98
2022-11-24T21:21:38.192Z,8.37
2022-11-24T21:24:40.970Z,7.50
2022-11-24T21:27:44.808Z,6.28
2022-11-24T21:30:47.621Z,7.45
2022-11-24T21:33:52.055Z,9.90
2022-11-24T21:36:54.537Z,9.93
2022-11-24T21:43:00.515Z,8.10
2022-11-24T21:46:06.391Z,9.70
2022-11-24T21:49:08.991Z,8.90
2022-11-24T21:52:11.786Z,9.50
2022-11-24T21:55:14.388Z,9.13
2022-11-24T21:58:17.165Z,9.48
2022-11-24T22:01:21.374Z,8.68
2022-11-24T22:04:24.339Z,8.52
2022-11-24T22:07:31.431Z,9.17
2022-11-24T22:10:36.008Z,8.50
2022-11-24T22:13:38.940Z,7.62
2022-11-24T22:16:41.893Z,7.40
2022-11-24T22:19:44.411Z,5.43
2022-11-24T22:22:47.106Z,6.30
2022-11-24T22:25:49.579Z,5.40
2022-11-24T22:31:57.726Z,5.43
2022-11-24T22:35:00.607Z,3.35
2022-11-24T22:38:03.107Z,3.37
2022-11-24T22:41:15.168Z,2.37
2022-11-24T22:44:17.755Z,3.60
2022-11-24T22:47:20.586Z,3.30
2022-11-24T22:50:23.026Z,3.50
2022-11-24T22:53:25.804Z,3.70
2022-11-24T22:56:29.820Z,2.87
2022-11-24T22:59:33.581Z,4.00
2022-11-24T23:02:36.114Z,3.25
2022-11-24T23:05:38.875Z,1.33
2022-11-24T23:08:41.577Z,1.83
2022-11-24T23:11:44.411Z,1.33
2022-11-24T23:14:46.822Z,1.58
2022-11-24T23:20:52.932Z,1.62
2022-11-24T23:23:56.206Z,1.60
2022-11-24T23:26:58.627Z,0.93
2022-11-24T23:30:04.095Z,1.30
2022-11-24T23:33:06.554Z,1.12
2022-11-24T23:36:13.646Z,1.40
2022-11-24T23:39:16.122Z,0.63
2022-11-24T23:42:18.992Z,1.20
2022-11-24T23:45:21.592Z,1.37
2022-11-24T23:48:24.503Z,2.28
2022-11-24T23:51:28.873Z,1.85
2022-11-24T23:54:31.651Z,3.00
2022-11-24T23:57:34.145Z,3.10
